Time;durP1;ratioP1;P1;durP2;ratioP2;P2;SDS_P1;SDS_P2;PMS_P1;PMS_P2;Temp;Humidity;BMP_temperature;BMP_pressure;BME280_temperature;BME280_humidity;BME280_pressure;Samples;Min_cycle;Max_cycle;Signal;HPM_P1;HPM_P2
2022/11/02 05:04:26;;;;;;;;;;;;;;;16.09;79.21;97660.97;4180437;28;10457;-72
2022/11/02 05:06:28;;;;;;;;;;;;;;;16.39;78.53;97669.31;4179446;28;6713;-72
2022/11/02 05:08:32;;;;;;;;;;;;;;;16.60;77.92;97675.22;4178223;28;5125;-72
2022/11/02 05:10:35;;;;;;;;;;;;;;;16.76;77.41;97676.66;4179340;28;6746;-72
2022/11/02 05:12:37;;;;;;;;;;;;;;;16.92;77.20;97679.88;4184097;28;5892;-72
2022/11/02 05:14:40;;;;;;;;;;;;;;;17.00;76.78;97668.94;4182700;28;5812;-72
2022/11/02 05:16:43;;;;;;;;;;;;;;;17.10;76.58;97671.97;4177760;28;5885;-72
2022/11/02 05:18:46;;;;;;;;;;;;;;;17.16;76.21;97674.59;4179630;28;5729;-72
2022/11/02 05:20:51;;;;;;;;;;;;;;;17.22;75.93;97683.63;4179946;28;5832;-72
2022/11/02 05:22:54;;;;;;;;;;;;;;;17.26;75.83;97681.34;4177411;28;6029;-71
2022/11/02 05:24:57;;;;;;;;;;;;;;;17.29;75.71;97700.44;4179607;28;5920;-72
2022/11/02 05:27:00;;;;;;;;;;;;;;;17.30;75.63;97691.38;4177290;28;6263;-72
2022/11/02 05:29:03;;;;;;;;;;;;;;;17.33;75.28;97690.16;4180503;28;5744;-72
2022/11/02 05:31:06;;;;;;;;;;;;;;;17.33;75.14;97685.63;4179964;28;5851;-72
2022/11/02 05:33:09;;;;;;;;;;;;;;;17.36;75.20;97685.19;4181859;28;5847;-72
2022/11/02 05:35:12;;;;;;;;;;;;;;;17.38;74.95;97684.97;4177027;28;5737;-72
2022/11/02 05:37:16;;;;;;;;;;;;;;;17.38;74.77;97693.81;4179509;28;5739;-72
2022/11/02 05:39:19;;;;;;;;;;;;;;;17.39;74.51;97689.28;4179507;28;5823;-72
2022/11/02 05:41:22;;;;;;;;;;;;;;;17.38;74.65;97693.81;4184195;28;5752;-72
2022/11/02 05:43:25;;;;;;;;;;;;;;;17.38;74.45;97688.47;4175706;28;5839;-72
2022/11/02 05:45:28;;;;;;;;;;;;;;;17.37;74.44;97686.84;4180566;28;6442;-72
2022/11/02 05:47:31;;;;;;;;;;;;;;;17.38;74.47;97693.00;4179129;28;5923;-72
2022/11/02 05:49:34;;;;;;;;;;;;;;;17.38;74.14;97693.81;4181084;28;6528;-71
2022/11/02 05:51:37;;;;;;;;;;;;;;;17.39;74.10;97698.13;4178227;28;5904;-71
2022/11/02 05:53:41;;;;;;;;;;;;;;;17.38;74.03;97693.00;4177457;28;5833;-72
2022/11/02 05:55:44;;;;;;;;;;;;;;;17.38;74.05;97704.50;4179118;28;5800;-71
2022/11/02 05:57:50;;;;;;;;;;;;;;;17.38;73.81;97698.34;4178227;28;5737;-72
2022/11/02 05:59:53;;;;;;;;;;;;;;;17.37;73.70;97702.88;4179241;28;5745;-72
2022/11/02 06:01:56;;;;;;;;;;;;;;;17.37;73.60;97702.88;4179155;28;6430;-72
2022/11/02 06:03:59;;;;;;;;;;;;;;;17.36;73.53;97709.25;4173056;28;5748;-72
2022/11/02 06:06:04;;;;;;;;;;;;;;;17.36;73.66;97701.22;4169291;28;5792;-72
2022/11/02 06:08:07;;;;;;;;;;;;;;;17.37;73.19;97707.41;4169494;28;5948;-72
2022/11/02 06:10:11;;;;;;;;;;;;;;;17.35;73.15;97710.28;4168720;28;6422;-72
2022/11/02 06:12:14;;;;;;;;;;;;;;;17.35;73.11;97715.63;4169177;28;5840;-72
2022/11/02 06:14:17;;;;;;;;;;;;;;;17.36;73.02;97722.63;4163862;28;5825;-72
2022/11/02 06:16:20;;;;;;;;;;;;;;;17.36;72.91;97713.78;4164688;28;5724;-72
2022/11/02 06:18:25;;;;;;;;;;;;;;;17.37;72.62;97721.59;4167063;28;5736;-72
2022/11/02 06:20:27;;;;;;;;;;;;;;;17.38;72.74;97720.53;4160980;28;5733;-72
2022/11/02 06:22:30;;;;;;;;;;;;;;;17.40;72.57;97723.00;4167690;28;5839;-72
2022/11/02 06:24:33;;;;;;;;;;;;;;;17.41;72.27;97733.47;4168821;28;6429;-72
2022/11/02 06:26:37;;;;;;;;;;;;;;;17.40;72.26;97723.00;4165998;28;5844;-72
2022/11/02 06:28:40;;;;;;;;;;;;;;;17.41;72.17;97727.31;4168549;28;5721;-72
2022/11/02 06:30:43;;;;;;;;;;;;;;;17.42;71.90;97735.09;4167797;28;5725;-72
2022/11/02 06:32:49;;;;;;;;;;;;;;;17.42;71.77;97740.47;4171732;28;5729;-72
2022/11/02 06:34:52;;;;;;;;;;;;;;;17.42;71.80;97735.09;4161209;28;5741;-71
2022/11/02 06:36:55;;;;;;;;;;;;;;;17.41;71.56;97733.47;4162747;28;5729;-72
2022/11/02 06:38:57;;;;;;;;;;;;;;;17.41;71.73;97741.50;4165181;28;5848;-72
2022/11/02 06:41:02;;;;;;;;;;;;;;;17.42;71.33;97736.97;4160335;28;5741;-72
2022/11/02 06:43:07;;;;;;;;;;;;;;;17.45;71.51;97747.25;4167963;28;5869;-72
2022/11/02 06:45:18;;;;;;;;;;;;;;;17.45;71.40;97742.72;4168361;28;5832;-71
2022/11/02 06:47:21;;;;;;;;;;;;;;;17.46;71.09;97748.88;4167995;28;5963;-72
2022/11/02 06:49:24;;;;;;;;;;;;;;;17.45;71.22;97756.09;4167939;28;5816;-72
2022/11/02 06:51:27;;;;;;;;;;;;;;;17.46;71.04;97747.03;4162881;28;5729;-72
2022/11/02 06:53:29;;;;;;;;;;;;;;;17.50;71.07;97755.44;4167741;28;5847;-72
2022/11/02 06:55:32;;;;;;;;;;;;;;;17.50;71.08;97755.44;4159494;28;5854;-72
2022/11/02 06:57:35;;;;;;;;;;;;;;;17.51;70.75;97761.59;4164361;28;5878;-72
2022/11/02 06:59:39;;;;;;;;;;;;;;;17.51;70.60;97769.63;4160695;28;5751;-73
2022/11/02 07:01:42;;;;;;;;;;;;;;;17.51;70.69;97770.44;4164490;28;5749;-73
2022/11/02 07:03:45;;;;;;;;;;;;;;;17.53;70.54;97768.38;4166301;28;5815;-72
2022/11/02 07:05:51;;;;;;;;;;;;;;;17.55;70.44;97771.66;4157087;28;5932;-73
2022/11/02 07:07:54;;;;;;;;;;;;;;;17.57;70.49;97768.78;4158367;28;5753;-72
2022/11/02 07:09:57;;;;;;;;;;;;;;;17.59;70.25;97780.09;4167593;28;5888;-72
2022/11/02 07:11:59;;;;;;;;;;;;;;;17.60;70.20;97776.38;4166581;28;5827;-72
2022/11/02 07:14:02;;;;;;;;;;;;;;;17.59;69.98;97775.56;4160774;28;5824;-66
2022/11/02 07:16:07;;;;;;;;;;;;;;;17.61;70.01;97783.34;4165637;28;5144;-66
2022/11/02 07:18:09;;;;;;;;;;;;;;;17.61;69.99;97778.81;4162022;28;5827;-68
2022/11/02 07:20:12;;;;;;;;;;;;;;;17.60;69.76;97787.06;4166411;28;5841;-67
2022/11/02 07:22:15;;;;;;;;;;;;;;;17.62;69.94;97790.34;4165961;28;6414;-67
2022/11/02 07:24:18;;;;;;;;;;;;;;;17.65;69.75;97789.91;4160361;28;6568;-68
2022/11/02 07:26:20;;;;;;;;;;;;;;;17.66;69.76;97792.38;4165992;28;5437;-68
2022/11/02 07:28:23;;;;;;;;;;;;;;;17.67;69.75;97795.88;4161847;28;7762;-70
2022/11/02 07:30:26;;;;;;;;;;;;;;;17.68;69.63;97801.00;4162411;28;6582;-69
2022/11/02 07:32:30;;;;;;;;;;;;;;;17.69;69.56;97802.69;4160280;28;5888;-67
2022/11/02 07:34:33;;;;;;;;;;;;;;;17.71;69.54;97805.13;4164256;28;5750;-68
2022/11/02 07:36:36;;;;;;;;;;;;;;;17.71;69.45;97805.97;4162234;28;5816;-68
2022/11/02 07:38:38;;;;;;;;;;;;;;;17.71;69.62;97805.13;4161760;28;5900;-67
2022/11/02 07:40:41;;;;;;;;;;;;;;;17.72;69.48;97801.44;4164787;28;6696;-66
2022/11/02 07:42:46;;;;;;;;;;;;;;;17.72;69.43;97812.13;4159929;28;5770;-66
2022/11/02 07:44:48;;;;;;;;;;;;;;;17.71;69.30;97815.84;4169459;28;5726;-66
2022/11/02 07:46:52;;;;;;;;;;;;;;;17.71;69.31;97813.16;4166074;28;5729;-68
2022/11/02 07:48:56;;;;;;;;;;;;;;;17.73;69.05;97811.09;4161397;28;5733;-69
2022/11/02 07:51:00;;;;;;;;;;;;;;;17.74;69.11;97810.06;4165227;28;5726;-65
2022/11/02 07:53:03;;;;;;;;;;;;;;;17.75;69.11;97811.69;4166214;28;5993;-64
2022/11/02 07:55:07;;;;;;;;;;;;;;;17.76;69.09;97813.31;4158968;28;5733;-65
2022/11/02 07:57:10;;;;;;;;;;;;;;;17.76;68.71;97813.31;4161610;28;5797;-67
2022/11/02 07:59:13;;;;;;;;;;;;;;;17.76;68.82;97818.69;4158379;28;5729;-67
2022/11/02 08:01:15;;;;;;;;;;;;;;;17.77;68.80;97822.16;4161565;28;5811;-67
2022/11/02 08:03:20;;;;;;;;;;;;;;;17.78;68.68;97815.78;4160106;28;6668;-67
2022/11/02 08:05:25;;;;;;;;;;;;;;;17.77;68.63;97822.16;4165860;28;5808;-67
2022/11/02 08:07:29;;;;;;;;;;;;;;;17.77;68.64;97822.16;4163150;28;5717;-67
2022/11/02 08:09:31;;;;;;;;;;;;;;;17.75;68.42;97825.88;4160160;28;5825;-67
2022/11/02 08:11:34;;;;;;;;;;;;;;;17.77;68.42;97828.34;4162601;28;6446;-72
2022/11/02 08:13:37;;;;;;;;;;;;;;;17.80;68.40;97827.94;4167217;28;5895;-65
2022/11/02 08:15:41;;;;;;;;;;;;;;;17.81;68.29;97821.53;4161177;28;5729;-65
2022/11/02 08:17:44;;;;;;;;;;;;;;;17.81;68.39;97826.91;4166585;28;5740;-65
2022/11/02 08:19:46;;;;;;;;;;;;;;;17.79;68.09;97818.28;4162451;28;5828;-64
2022/11/02 08:21:51;;;;;;;;;;;;;;;17.79;67.89;97818.28;4162640;28;5728;-64
2022/11/02 08:23:55;;;;;;;;;;;;;;;17.77;68.09;97814.97;4159491;28;5841;-64
2022/11/02 08:26:00;;;;;;;;;;;;;;;17.80;68.06;97822.59;4162395;28;5823;-64
2022/11/02 08:28:04;;;;;;;;;;;;;;;17.82;68.11;97817.84;4164738;28;5819;-64
2022/11/02 08:30:08;;;;;;;;;;;;;;;17.81;67.82;97816.19;4166926;28;5839;-64
2022/11/02 08:32:12;;;;;;;;;;;;;;;17.79;67.83;97815.59;4163859;28;5749;-64
2022/11/02 08:34:18;;;;;;;;;;;;;;;17.79;67.75;97818.28;4159044;28;5720;-66
2022/11/02 08:36:21;;;;;;;;;;;;;;;17.81;67.66;97810.03;4165508;28;5754;-68
2022/11/02 08:38:25;;;;;;;;;;;;;;;17.80;67.77;97813.75;4167291;28;6583;-66
2022/11/02 08:40:29;;;;;;;;;;;;;;;17.81;67.58;97802.81;4166646;28;5812;-67
2022/11/02 08:42:33;;;;;;;;;;;;;;;17.82;67.43;97812.50;4166906;28;5753;-67
2022/11/02 08:44:36;;;;;;;;;;;;;;;17.83;67.48;97816.81;4166939;28;5725;-69
2022/11/02 08:46:44;;;;;;;;;;;;;;;17.84;67.46;97809.59;4166873;28;5741;-68
2022/11/02 08:48:49;;;;;;;;;;;;;;;17.83;67.46;97806.09;4167239;28;5832;-68
2022/11/02 08:50:52;;;;;;;;;;;;;;;17.86;67.34;97808.34;4166755;28;5720;-69
2022/11/02 08:52:55;;;;;;;;;;;;;;;17.86;67.00;97805.66;4166798;28;5734;-68
2022/11/02 08:54:59;;;;;;;;;;;;;;;17.85;67.17;97805.88;4163842;28;5907;-66
2022/11/02 08:57:03;;;;;;;;;;;;;;;17.85;67.10;97804.03;4166743;28;5733;-66
2022/11/02 08:59:06;;;;;;;;;;;;;;;17.88;67.20;97792.88;4166037;28;6533;-66
2022/11/02 09:01:14;;;;;;;;;;;;;;;17.90;66.85;97798.88;4166618;28;5792;-64
2022/11/02 09:03:17;;;;;;;;;;;;;;;17.89;67.04;97799.88;4166715;28;5874;-66
2022/11/02 09:05:28;;;;;;;;;;;;;;;17.89;66.95;97802.56;4166461;28;5741;-66
2022/11/02 09:07:32;;;;;;;;;;;;;;;17.91;67.00;97802.38;4160391;28;5833;-65
2022/11/02 09:09:35;;;;;;;;;;;;;;;17.95;66.76;97807.06;4166838;28;6459;-66
2022/11/02 09:11:40;;;;;;;;;;;;;;;17.98;66.71;97806.63;4166397;28;5753;-67
2022/11/02 09:13:43;;;;;;;;;;;;;;;17.99;66.62;97813.59;4166855;28;5800;-66
2022/11/02 09:15:50;;;;;;;;;;;;;;;17.99;66.55;97797.56;4166772;28;5951;-66
2022/11/02 09:17:53;;;;;;;;;;;;;;;18.03;66.31;97797.97;4166976;28;5770;-69
2022/11/02 09:19:56;;;;;;;;;;;;;;;18.04;66.35;97800.41;4166722;28;5996;-70
2022/11/02 09:21:59;;;;;;;;;;;;;;;18.07;66.22;97788.47;4166160;28;7738;-70
2022/11/02 09:24:08;;;;;;;;;;;;;;;18.12;66.09;97796.66;4165899;28;5868;-70
2022/11/02 09:26:11;;;;;;;;;;;;;;;18.14;66.26;97791.09;4166349;28;6491;-70
2022/11/02 09:28:15;;;;;;;;;;;;;;;18.18;66.20;97792.28;4163249;28;5809;-71
2022/11/02 09:30:18;;;;;;;;;;;;;;;18.19;65.94;97792.06;4166440;28;5757;-70
2022/11/02 09:32:22;;;;;;;;;;;;;;;18.21;65.72;97783.81;4166564;28;5860;-69
2022/11/02 09:34:25;;;;;;;;;;;;;;;18.21;65.79;97789.16;4166439;28;5744;-72
2022/11/02 09:36:30;;;;;;;;;;;;;;;18.20;65.86;97783.00;4166326;28;5736;-66
2022/11/02 09:38:34;;;;;;;;;;;;;;;18.22;65.46;97786.28;4166049;28;5858;-66
2022/11/02 09:40:39;;;;;;;;;;;;;;;18.22;65.57;97782.78;4166131;28;5895;-65
2022/11/02 09:42:53;;;;;;;;;;;;;;;18.26;65.28;97789.34;4168978;28;5791;-66
2022/11/02 09:45:01;;;;;;;;;;;;;;;18.26;65.35;97778.66;4166483;28;5844;-69
2022/11/02 09:47:08;;;;;;;;;;;;;;;18.29;65.30;97783.56;4169507;28;5811;-66
2022/11/02 09:49:31;;;;;;;;;;;;;;;18.33;65.30;97780.22;4163292;28;5816;-68
2022/11/02 09:51:37;;;;;;;;;;;;;;;18.35;65.19;97780.03;4169367;28;5796;-68
2022/11/02 09:53:50;;;;;;;;;;;;;;;18.35;64.99;97772.00;4169104;28;5729;-69
2022/11/02 09:55:57;;;;;;;;;;;;;;;18.33;65.08;97776.72;4168984;28;5796;-66
2022/11/02 09:58:06;;;;;;;;;;;;;;;18.33;65.07;97776.72;4164347;28;5772;-66
2022/11/02 10:00:13;;;;;;;;;;;;;;;18.35;64.84;97772.00;4165203;28;6509;-65
2022/11/02 10:02:30;;;;;;;;;;;;;;;18.34;64.92;97779.19;4165583;28;6741;-66
2022/11/02 10:04:49;;;;;;;;;;;;;;;18.35;64.71;97777.34;4167627;28;5717;-66
2022/11/02 10:06:58;;;;;;;;;;;;;;;18.36;64.65;97773.63;4167407;28;5977;-66
2022/11/02 10:09:09;;;;;;;;;;;;;;;18.35;64.29;97766.63;4160409;28;5752;-65
2022/11/02 10:11:25;;;;;;;;;;;;;;;18.33;64.25;97771.38;4160266;28;5748;-65
2022/11/02 10:13:37;;;;;;;;;;;;;;;18.34;64.34;97767.66;4157978;28;5944;-66
2022/11/02 10:15:45;;;;;;;;;;;;;;;18.32;64.33;97775.91;4162422;28;5804;-67
2022/11/02 10:17:53;;;;;;;;;;;;;;;18.29;64.12;97767.50;4168632;28;5792;-66
2022/11/02 10:19:59;;;;;;;;;;;;;;;18.29;64.15;97762.97;4166599;28;5828;-68
2022/11/02 10:22:02;;;;;;;;;;;;;;;18.30;64.45;97763.78;4167188;28;5140;-67
2022/11/02 10:24:15;;;;;;;;;;;;;;;18.30;64.49;97761.09;4166056;28;5865;-64
2022/11/02 10:26:22;;;;;;;;;;;;;;;18.27;64.19;97754.34;4168852;28;5728;-65
2022/11/02 10:28:30;;;;;;;;;;;;;;;18.28;64.33;97771.22;4169155;28;5745;-64
2022/11/02 10:30:33;;;;;;;;;;;;;;;18.27;64.22;97761.56;4169235;28;5832;-68
2022/11/02 10:32:39;;;;;;;;;;;;;;;18.27;64.48;97758.88;4169223;28;5740;-68
2022/11/02 10:34:44;;;;;;;;;;;;;;;18.26;64.01;97766.09;4169022;28;5732;-68
2022/11/02 10:37:17;;;;;;;;;;;;;;;18.26;63.96;97755.38;4166571;28;5845;-68
2022/11/02 10:39:28;;;;;;;;;;;;;;;18.26;64.02;97755.38;4167757;28;5790;-68
2022/11/02 10:41:48;;;;;;;;;;;;;;;18.25;64.23;97748.41;4167974;28;5824;-66
2022/11/02 10:44:07;;;;;;;;;;;;;;;18.23;64.02;97745.13;4165260;28;7083;-66
2022/11/02 10:46:25;;;;;;;;;;;;;;;18.23;64.12;97746.94;4168221;28;5726;-66
2022/11/02 10:48:36;;;;;;;;;;;;;;;18.22;64.00;97743.44;4168562;28;5745;-66
2022/11/02 10:50:47;;;;;;;;;;;;;;;18.19;64.01;97741.22;4168996;28;5736;-66
2022/11/02 10:52:50;;;;;;;;;;;;;;;18.18;64.15;97738.78;4166954;28;5804;-66
2022/11/02 10:54:53;;;;;;;;;;;;;;;18.19;64.14;97735.06;4167465;28;5728;-67
2022/11/02 10:56:56;;;;;;;;;;;;;;;18.21;64.04;97735.66;4165473;28;5832;-67
2022/11/02 10:59:03;;;;;;;;;;;;;;;18.22;63.97;97731.94;4162424;28;5891;-66
2022/11/02 11:01:08;;;;;;;;;;;;;;;18.24;63.75;97727.19;4159802;28;5754;-66
2022/11/02 11:03:13;;;;;;;;;;;;;;;18.25;63.88;97718.13;4164073;28;5842;-66
2022/11/02 11:05:19;;;;;;;;;;;;;;;18.25;63.77;97723.47;4167659;28;5729;-66
2022/11/02 11:07:26;;;;;;;;;;;;;;;18.27;63.49;97716.06;4162709;28;5742;-66
2022/11/02 11:09:39;;;;;;;;;;;;;;;18.25;63.42;97710.91;4165498;28;6426;-66
2022/11/02 11:11:54;;;;;;;;;;;;;;;18.27;63.34;97708.03;4166185;28;5728;-66
2022/11/02 11:14:02;;;;;;;;;;;;;;;18.26;63.55;97706.38;4158997;28;5915;-66
2022/11/02 11:16:35;;;;;;;;;;;;;;;18.27;63.56;97702.66;4156834;28;7765;-66
2022/11/02 11:18:38;;;;;;;;;;;;;;;18.26;63.26;97701.84;4163680;28;6683;-66
2022/11/02 11:21:03;;;;;;;;;;;;;;;18.26;63.22;97693.00;4166667;28;5740;-66
2022/11/02 11:23:09;;;;;;;;;;;;;;;18.26;63.40;97695.69;4165739;28;5438;-66
2022/11/02 11:25:29;;;;;;;;;;;;;;;18.28;63.36;97689.06;4162314;28;7757;-66
2022/11/02 11:27:44;;;;;;;;;;;;;;;18.30;63.29;97692.34;4163368;28;5716;-66
2022/11/02 11:29:54;;;;;;;;;;;;;;;18.31;63.26;97682.44;4166928;28;5724;-66
2022/11/02 11:31:56;;;;;;;;;;;;;;;18.30;63.27;97676.28;4163750;28;5736;-66
2022/11/02 11:34:00;;;;;;;;;;;;;;;18.31;63.42;97671.72;4160674;28;5272;-66
2022/11/02 11:36:05;;;;;;;;;;;;;;;18.32;63.01;97668.84;4163416;28;7811;-66
2022/11/02 11:38:13;;;;;;;;;;;;;;;18.33;63.16;97666.97;4163293;28;5919;-66
2022/11/02 11:40:21;;;;;;;;;;;;;;;18.33;63.05;97664.28;4160252;28;5813;-66
2022/11/02 11:42:26;;;;;;;;;;;;;;;18.32;63.03;97665.34;4158273;28;5765;-66
2022/11/02 11:44:30;;;;;;;;;;;;;;;18.33;62.68;97661.63;4164986;28;5725;-66
2022/11/02 11:46:40;;;;;;;;;;;;;;;18.34;62.79;97666.75;4165834;28;6704;-65
2022/11/02 11:48:47;;;;;;;;;;;;;;;18.33;62.49;97661.63;4163173;28;5745;-65
2022/11/02 11:50:50;;;;;;;;;;;;;;;18.33;62.61;97648.25;4167347;28;5724;-65
2022/11/02 11:53:16;;;;;;;;;;;;;;;18.36;62.40;97647.00;4166480;28;5819;-65
2022/11/02 11:55:21;;;;;;;;;;;;;;;18.34;62.25;97653.38;4158617;28;5754;-65
2022/11/02 11:57:28;;;;;;;;;;;;;;;18.35;62.24;97654.22;4167588;28;5828;-64
2022/11/02 11:59:45;;;;;;;;;;;;;;;18.37;62.19;97654.81;4167714;28;5839;-64
2022/11/02 12:01:48;;;;;;;;;;;;;;;18.36;62.03;97652.34;4166253;28;5824;-64
2022/11/02 12:03:54;;;;;;;;;;;;;;;18.30;61.90;97649.50;4167576;28;5737;-64
2022/11/02 12:06:06;;;;;;;;;;;;;;;18.27;61.85;97644.59;4167733;28;6469;-64
2022/11/02 12:08:25;;;;;;;;;;;;;;;18.27;61.80;97636.56;4167684;28;5741;-64
2022/11/02 12:10:43;;;;;;;;;;;;;;;18.29;61.80;97634.50;4164905;28;5954;-64
2022/11/02 12:13:02;;;;;;;;;;;;;;;18.31;61.42;97631.59;4167254;28;5750;-63
2022/11/02 12:15:18;;;;;;;;;;;;;;;18.32;61.57;97631.34;4163202;28;5729;-62
2022/11/02 12:17:43;;;;;;;;;;;;;;;18.34;61.52;97629.28;4166258;28;5765;-66
2022/11/02 12:20:00;;;;;;;;;;;;;;;18.35;61.23;97630.13;4167588;28;5105;-63
2022/11/02 12:22:14;;;;;;;;;;;;;;;18.35;60.97;97630.13;4161844;28;5758;-63
2022/11/02 12:24:38;;;;;;;;;;;;;;;18.33;60.80;97622.28;4164404;28;5924;-63
2022/11/02 12:26:57;;;;;;;;;;;;;;;18.32;60.89;97619.84;4160625;28;5729;-63
2022/11/02 12:29:15;;;;;;;;;;;;;;;18.31;60.82;97615.53;4160239;28;5613;-63
2022/11/02 12:31:32;;;;;;;;;;;;;;;18.32;60.70;97612.63;4165378;28;5871;-63
2022/11/02 12:33:50;;;;;;;;;;;;;;;18.32;60.52;97606.44;4160431;28;6699;-63
2022/11/02 12:36:05;;;;;;;;;;;;;;;18.31;60.21;97607.50;4165827;28;5807;-64
2022/11/02 12:38:22;;;;;;;;;;;;;;;18.28;60.10;97608.75;4165935;28;5820;-65
2022/11/02 12:40:36;;;;;;;;;;;;;;;18.30;60.23;97601.31;4159866;28;5749;-64
2022/11/02 12:43:03;;;;;;;;;;;;;;;18.32;59.99;97599.25;4167221;28;5720;-64
2022/11/02 12:45:21;;;;;;;;;;;;;;;18.33;59.71;97594.69;4167248;28;5737;-64
2022/11/02 12:47:45;;;;;;;;;;;;;;;18.34;59.87;97585.63;4165966;28;5732;-64
2022/11/02 12:49:59;;;;;;;;;;;;;;;18.36;59.71;97590.78;4164230;28;5789;-64
2022/11/02 12:52:12;;;;;;;;;;;;;;;18.35;59.77;97587.28;4178286;28;5940;-66
2022/11/02 12:54:19;;;;;;;;;;;;;;;18.37;59.67;97590.56;4164565;28;5938;-66
2022/11/02 12:56:29;;;;;;;;;;;;;;;18.38;59.53;97576.13;4161548;28;5828;-66
2022/11/02 12:58:36;;;;;;;;;;;;;;;18.39;59.42;97571.59;4161070;28;5812;-66
2022/11/02 13:00:44;;;;;;;;;;;;;;;18.40;59.34;97573.22;4166055;28;5817;-66
2022/11/02 13:02:55;;;;;;;;;;;;;;;18.41;59.41;97573.00;4164522;28;5725;-66
2022/11/02 13:05:02;;;;;;;;;;;;;;;18.42;59.24;97568.47;4160764;28;6530;-66
2022/11/02 13:07:11;;;;;;;;;;;;;;;18.43;59.38;97570.91;4164175;28;5800;-66
2022/11/02 13:09:18;;;;;;;;;;;;;;;18.44;59.03;97567.19;4164900;28;5749;-66
2022/11/02 13:11:28;;;;;;;;;;;;;;;18.44;59.21;97564.50;4162080;28;5740;-66
2022/11/02 13:13:38;;;;;;;;;;;;;;;18.42;58.86;97555.88;4165955;28;5725;-65
2022/11/02 13:15:43;;;;;;;;;;;;;;;18.42;59.11;97558.56;4167956;28;5753;-65
2022/11/02 13:17:48;;;;;;;;;;;;;;;18.41;59.07;97551.59;4167970;28;5728;-65
2022/11/02 13:19:55;;;;;;;;;;;;;;;18.42;58.90;97553.22;4160171;28;5737;-66
2022/11/02 13:21:59;;;;;;;;;;;;;;;18.41;58.80;97554.25;4168382;28;5797;-64
2022/11/02 13:24:04;;;;;;;;;;;;;;;18.42;58.70;97544.38;4168220;28;5736;-65
2022/11/02 13:26:14;;;;;;;;;;;;;;;18.42;58.71;97547.84;4169518;28;5090;-65
2022/11/02 13:28:33;;;;;;;;;;;;;;;18.42;58.21;97541.69;4170315;28;5839;-65
2022/11/02 13:30:36;;;;;;;;;;;;;;;18.44;58.26;97548.44;4156293;28;5746;-64
2022/11/02 13:32:43;;;;;;;;;;;;;;;18.44;58.17;97537.75;4169994;28;5753;-65
2022/11/02 13:34:50;;;;;;;;;;;;;;;18.43;58.45;97538.78;4170154;28;5820;-64
2022/11/02 13:36:53;;;;;;;;;;;;;;;18.43;58.38;97541.47;4169883;28;5838;-64
2022/11/02 13:39:01;;;;;;;;;;;;;;;18.41;58.14;97535.53;4168415;28;6451;-66
2022/11/02 13:41:18;;;;;;;;;;;;;;;18.42;57.79;97539.81;4169225;28;5725;-64
2022/11/02 13:43:51;;;;;;;;;;;;;;;18.42;57.86;97539.81;4161903;28;5720;-64
2022/11/02 13:46:25;;;;;;;;;;;;;;;18.44;57.95;97537.75;4169969;28;5928;-65
2022/11/02 13:48:56;;;;;;;;;;;;;;;18.44;57.70;97537.75;4169599;28;5839;-65
2022/11/02 13:51:04;;;;;;;;;;;;;;;18.44;57.82;97537.75;4164118;28;5820;-65
2022/11/02 13:53:12;;;;;;;;;;;;;;;18.44;57.56;97532.38;4168142;28;5845;-64
2022/11/02 13:55:20;;;;;;;;;;;;;;;18.45;57.44;97536.69;4161446;28;5777;-63
2022/11/02 13:57:33;;;;;;;;;;;;;;;18.44;57.45;97532.38;4163800;28;5758;-64
2022/11/02 13:59:38;;;;;;;;;;;;;;;18.47;57.59;97531.13;4165480;28;5773;-63
2022/11/02 14:01:45;;;;;;;;;;;;;;;18.47;57.40;97526.59;4162643;28;5733;-64
2022/11/02 14:03:52;;;;;;;;;;;;;;;18.47;57.13;97525.78;4166636;28;5246;-63
2022/11/02 14:06:10;;;;;;;;;;;;;;;18.47;57.36;97525.78;4167144;28;7757;-65
2022/11/02 14:08:20;;;;;;;;;;;;;;;18.47;57.22;97521.25;4169433;28;5725;-66
2022/11/02 14:10:23;;;;;;;;;;;;;;;18.47;57.14;97526.59;4168906;28;5749;-66
2022/11/02 14:12:40;;;;;;;;;;;;;;;18.47;56.67;97523.09;4168900;28;5828;-66
2022/11/02 14:14:45;;;;;;;;;;;;;;;18.47;57.14;97526.59;4169521;28;5937;-65
2022/11/02 14:16:59;;;;;;;;;;;;;;;18.47;56.72;97521.25;4166238;28;7574;-65
2022/11/02 14:19:22;;;;;;;;;;;;;;;18.48;56.78;97522.88;4167942;28;6449;-65
2022/11/02 14:21:43;;;;;;;;;;;;;;;18.46;56.51;97518.78;4166220;28;5756;-64
2022/11/02 14:23:45;;;;;;;;;;;;;;;18.47;56.75;97521.25;4167083;28;5828;-66
2022/11/02 14:25:50;;;;;;;;;;;;;;;18.46;56.24;97524.13;4168003;28;5839;-65
2022/11/02 14:27:54;;;;;;;;;;;;;;;18.45;56.39;97515.28;4168288;28;5793;-65
2022/11/02 14:29:58;;;;;;;;;;;;;;;18.46;56.31;97510.75;4167737;28;5872;-66
2022/11/02 14:32:10;;;;;;;;;;;;;;;18.45;56.10;97517.94;4168313;28;5829;-65
2022/11/02 14:34:29;;;;;;;;;;;;;;;18.46;56.10;97513.41;4165596;28;5799;-65
2022/11/02 14:36:53;;;;;;;;;;;;;;;18.42;55.88;97518.41;4163668;28;5729;-65
2022/11/02 14:39:09;;;;;;;;;;;;;;;18.41;55.69;97522.13;4168468;28;5729;-66
2022/11/02 14:41:33;;;;;;;;;;;;;;;18.39;55.67;97521.56;4167988;28;5843;-66
2022/11/02 14:43:54;;;;;;;;;;;;;;;18.38;55.40;97511.88;4162848;28;5859;-64
2022/11/02 14:46:07;;;;;;;;;;;;;;;18.37;55.37;97512.94;4168254;28;5816;-66
2022/11/02 14:48:15;;;;;;;;;;;;;;;18.38;55.12;97509.22;4168138;28;5750;-65
2022/11/02 14:50:21;;;;;;;;;;;;;;;18.36;55.33;97516.66;4165211;28;5891;-63
2022/11/02 14:52:27;;;;;;;;;;;;;;;18.37;55.28;97507.56;4167388;28;5832;-65
2022/11/02 14:54:32;;;;;;;;;;;;;;;18.37;54.97;97499.53;4168063;28;5756;-65
2022/11/02 14:56:51;;;;;;;;;;;;;;;18.36;54.92;97497.91;4160296;28;5770;-66
2022/11/02 14:58:57;;;;;;;;;;;;;;;18.35;54.92;97501.63;4168004;28;5333;-68
2022/11/02 15:01:02;;;;;;;;;;;;;;;18.35;54.49;97496.28;4169437;28;5141;-66
2022/11/02 15:03:27;;;;;;;;;;;;;;;18.34;54.67;97497.31;4165098;28;5801;-67
2022/11/02 15:05:35;;;;;;;;;;;;;;;18.35;54.29;97493.59;4166803;28;5737;-69
2022/11/02 15:07:42;;;;;;;;;;;;;;;18.36;54.46;97487.22;4164257;28;5959;-66
2022/11/02 15:09:53;;;;;;;;;;;;;;;18.35;54.50;97490.94;4164735;28;5803;-65
2022/11/02 15:11:58;;;;;;;;;;;;;;;18.35;54.22;97485.56;4161882;28;5815;-66
2022/11/02 15:14:01;;;;;;;;;;;;;;;18.34;54.13;97490.09;4165603;28;5811;-68
2022/11/02 15:16:25;;;;;;;;;;;;;;;18.34;54.02;97491.94;4163934;28;5733;-67
2022/11/02 15:18:36;;;;;;;;;;;;;;;18.32;54.25;97481.47;4165729;28;5827;-65
2022/11/02 15:20:39;;;;;;;;;;;;;;;18.32;54.21;97478.78;4169994;28;5741;-68
2022/11/02 15:22:51;;;;;;;;;;;;;;;18.33;53.90;97477.75;4165867;28;5855;-68
2022/11/02 15:24:57;;;;;;;;;;;;;;;18.31;53.95;97471.00;4164781;28;5725;-68
2022/11/02 15:27:00;;;;;;;;;;;;;;;18.30;53.74;97472.03;4167798;28;5708;-66
2022/11/02 15:29:06;;;;;;;;;;;;;;;18.29;53.90;97465.88;4167084;28;5903;-65
2022/11/02 15:31:16;;;;;;;;;;;;;;;18.30;53.82;97466.69;4166079;28;5852;-66
2022/11/02 15:33:36;;;;;;;;;;;;;;;18.29;53.97;97465.88;4164465;28;5808;-66
2022/11/02 15:35:39;;;;;;;;;;;;;;;18.30;53.88;97461.31;4161448;28;5853;-68
2022/11/02 15:37:42;;;;;;;;;;;;;;;18.28;53.82;97463.41;4162872;28;5733;-65
2022/11/02 15:40:19;;;;;;;;;;;;;;;18.26;53.94;97463.66;4165522;28;5761;-68
2022/11/02 15:42:33;;;;;;;;;;;;;;;18.26;53.74;97460.16;4164628;28;5868;-67
2022/11/02 15:44:58;;;;;;;;;;;;;;;18.25;53.97;97458.53;4165419;28;5812;-67
2022/11/02 15:47:29;;;;;;;;;;;;;;;18.24;53.82;97456.91;4172602;28;5956;-69
2022/11/02 15:49:58;;;;;;;;;;;;;;;18.24;53.92;97457.72;4161019;28;5919;-65
2022/11/02 15:52:08;;;;;;;;;;;;;;;18.24;54.01;97456.91;4167258;28;5722;-65
2022/11/02 15:54:27;;;;;;;;;;;;;;;18.23;53.74;97450.72;4167371;28;5132;-66
2022/11/02 15:56:53;;;;;;;;;;;;;;;18.22;54.01;97449.06;4166011;28;5732;-64
2022/11/02 15:59:15;;;;;;;;;;;;;;;18.21;54.01;97452.78;4164473;28;5800;-67
2022/11/02 16:01:21;;;;;;;;;;;;;;;18.20;53.97;97450.34;4169486;28;5809;-65
2022/11/02 16:03:25;;;;;;;;;;;;;;;18.19;54.04;97448.72;4166336;28;7745;-67
2022/11/02 16:05:32;;;;;;;;;;;;;;;18.18;53.99;97452.44;4166851;28;5721;-66
2022/11/02 16:07:36;;;;;;;;;;;;;;;18.17;54.09;97450.78;4166972;28;5745;-70
2022/11/02 16:10:21;;;;;;;;;;;;;;;18.17;53.82;97458.81;4166257;28;5883;-66
2022/11/02 16:12:24;;;;;;;;;;;;;;;18.16;54.14;97454.53;4159270;28;5840;-66
2022/11/02 16:14:30;;;;;;;;;;;;;;;18.14;54.04;97452.06;4166764;28;5721;-66
2022/11/02 16:16:33;;;;;;;;;;;;;;;18.14;53.79;97451.25;4163462;28;5773;-66
2022/11/02 16:18:39;;;;;;;;;;;;;;;18.13;53.94;97444.28;4166883;28;5958;-64
2022/11/02 16:20:45;;;;;;;;;;;;;;;18.11;53.96;97444.47;4166366;28;5820;-66